Seattle, Washington
Traffic Map
Current Weather Conditions
Seattle, Washington
Scattered Clouds Haze
Scattered Clouds
46°
Feels Like: 41°
Wind Chill: 41° Ceiling: Unl
Heat Index: 46° Visibility: 5mi
Dew Point: 43° Wind: 13mph
Humidity: 87% Direction: 140° (SE)
Pressure: 29.95in Gusts: 0mph
Raw Report DataKBFI 261415Z 14011KT 5SM BR SCT004 08/06 A2995 RMK AO2
Traffic Incident Summary
Active as of:
Severity:
Category:
InformationThere was an issue retrieving the traffic information for this location. Please try a different location or try again shortly.
Advertisements
Track Severe Weather on mobile